Time;durP1;ratioP1;P1;durP2;ratioP2;P2;SDS_P1;SDS_P2;PMS_P1;PMS_P2;Temp;Humidity;BMP_temperature;BMP_pressure;BME280_temperature;BME280_humidity;BME280_pressure;Samples;Min_cycle;Max_cycle;Signal;HPM_P1;HPM_P2
2023/08/13 00:03:04;;;;;;;24.05;16.55;;;17.20;99.90;;;;;;8406254;28;20027;-81
2023/08/13 00:07:05;;;;;;;26.20;15.07;;;17.20;99.90;;;;;;8410077;28;20024;-81
2023/08/13 00:11:11;;;;;;;9.52;6.63;;;17.30;99.90;;;;;;8427306;28;20171;-81
2023/08/13 00:15:11;;;;;;;9.93;6.47;;;17.30;99.90;;;;;;8426566;28;20020;-81
2023/08/13 00:19:12;;;;;;;12.90;8.63;;;17.40;99.90;;;;;;8409623;28;20077;-81
2023/08/13 00:23:13;;;;;;;14.55;6.75;;;17.20;99.90;;;;;;8427121;28;20043;-80
2023/08/13 00:27:13;;;;;;;7.70;5.85;;;17.10;99.90;;;;;;8406942;28;20074;-79
2023/08/13 00:31:14;;;;;;;8.77;7.47;;;17.00;99.90;;;;;;8407305;28;20437;-80
2023/08/13 00:35:14;;;;;;;8.02;6.80;;;17.10;99.90;;;;;;8427706;28;20403;-81
2023/08/13 00:39:15;;;;;;;9.43;6.80;;;17.10;99.90;;;;;;8432166;28;20095;-80
2023/08/13 00:43:15;;;;;;;7.82;6.60;;;16.90;99.90;;;;;;8409458;28;20030;-80
2023/08/13 00:47:16;;;;;;;8.52;6.97;;;16.80;99.90;;;;;;8414047;28;20024;-80
2023/08/13 00:51:22;;;;;;;10.77;7.47;;;16.70;99.90;;;;;;8431242;28;20027;-80
2023/08/13 00:55:23;;;;;;;11.35;7.90;;;16.60;99.90;;;;;;8410168;28;20032;-79
2023/08/13 00:59:24;;;;;;;10.52;7.65;;;16.60;99.90;;;;;;8413221;28;20457;-79
2023/08/13 01:03:24;;;;;;;9.20;7.65;;;16.60;99.90;;;;;;8409226;28;20495;-80
2023/08/13 01:07:33;;;;;;;12.48;8.35;;;16.50;99.90;;;;;;8431322;28;20307;-80
2023/08/13 01:11:50;;;;;;;13.18;7.80;;;16.40;99.90;;;;;;8430872;28;20103;-80
2023/08/13 01:15:55;;;;;;;8.75;7.50;;;16.30;99.90;;;;;;8413182;28;20387;-80
2023/08/13 01:19:57;;;;;;;10.88;8.63;;;16.30;99.90;;;;;;8413478;28;20020;-80
2023/08/13 01:23:58;;;;;;;14.32;8.35;;;16.30;99.90;;;;;;8414265;28;20027;-79
2023/08/13 01:28:16;;;;;;;14.02;7.53;;;16.30;99.90;;;;;;8413040;28;20048;-80
2023/08/13 01:32:21;;;;;;;11.35;8.90;;;16.30;99.90;;;;;;8431550;28;20070;-81
2023/08/13 01:36:25;;;;;;;13.27;8.55;;;16.30;99.90;;;;;;8412966;28;20021;-80
2023/08/13 01:40:25;;;;;;;10.88;7.53;;;16.20;99.90;;;;;;8412756;28;20024;-80
2023/08/13 01:44:26;;;;;;;12.15;8.18;;;16.10;99.90;;;;;;8426096;28;20055;-80
2023/08/13 01:48:26;;;;;;;14.32;7.72;;;16.10;99.90;;;;;;8411938;28;20488;-80
2023/08/13 01:52:27;;;;;;;13.90;9.13;;;16.00;99.90;;;;;;8412000;28;20081;-80
2023/08/13 01:56:28;;;;;;;12.65;9.40;;;15.90;99.90;;;;;;8430149;28;20101;-79
2023/08/13 02:00:28;;;;;;;8.90;7.82;;;15.90;99.90;;;;;;8412576;28;20052;-81
2023/08/13 02:04:29;;;;;;;8.35;7.25;;;15.90;99.90;;;;;;8425989;28;20035;-80
2023/08/13 02:08:30;;;;;;;10.68;7.65;;;15.80;99.90;;;;;;8411219;28;20107;-80
2023/08/13 02:12:30;;;;;;;14.35;8.90;;;15.80;99.90;;;;;;8407326;28;20020;-80
2023/08/13 02:16:31;;;;;;;11.20;9.23;;;15.70;99.90;;;;;;8428765;28;20093;-80
2023/08/13 02:20:31;;;;;;;13.68;10.38;;;15.60;99.90;;;;;;8412113;28;20031;-80
2023/08/13 02:24:32;;;;;;;16.83;10.18;;;15.60;99.90;;;;;;8429240;28;20384;-81
2023/08/13 02:28:33;;;;;;;14.02;10.48;;;15.70;99.90;;;;;;8411499;28;20020;-80
2023/08/13 02:32:33;;;;;;;14.57;9.85;;;15.70;99.90;;;;;;8410825;28;20059;-80
2023/08/13 02:36:34;;;;;;;16.13;10.95;;;15.80;99.90;;;;;;8411213;28;20028;-80
2023/08/13 02:40:34;;;;;;;14.15;10.40;;;15.80;99.90;;;;;;8430249;28;20427;-81
2023/08/13 02:44:35;;;;;;;17.40;11.32;;;15.70;99.90;;;;;;8407044;28;20474;-80
2023/08/13 02:48:35;;;;;;;12.90;10.15;;;15.60;99.90;;;;;;8411009;28;20553;-80
2023/08/13 02:52:36;;;;;;;13.10;10.25;;;15.60;99.90;;;;;;8410519;28;20396;-80
2023/08/13 02:56:37;;;;;;;12.35;10.35;;;15.40;99.90;;;;;;8440239;22;20118;-82
2023/08/13 03:00:38;;;;;;;13.43;9.35;;;15.40;99.90;;;;;;8379297;28;20032;-81
2023/08/13 03:04:39;;;;;;;14.82;9.20;;;15.40;99.90;;;;;;8389023;28;20056;-82
2023/08/13 03:08:39;;;;;;;14.75;9.70;;;15.40;99.90;;;;;;8408255;28;20032;-82
2023/08/13 03:12:40;;;;;;;16.45;10.10;;;15.40;99.90;;;;;;8404144;28;20065;-82
2023/08/13 03:16:40;;;;;;;12.75;10.23;;;15.40;99.90;;;;;;8408600;28;20024;-82
2023/08/13 03:20:41;;;;;;;12.43;9.88;;;15.40;99.90;;;;;;8406885;28;20031;-82
2023/08/13 03:24:41;;;;;;;13.55;9.43;;;15.40;99.90;;;;;;8385670;28;20043;-82
2023/08/13 03:28:42;;;;;;;13.85;9.98;;;15.30;99.90;;;;;;8408088;28;20055;-82
2023/08/13 03:32:43;;;;;;;14.63;10.88;;;15.40;99.90;;;;;;8382935;28;20500;-81
2023/08/13 03:36:43;;;;;;;11.60;8.88;;;15.30;99.90;;;;;;8401774;28;20021;-82
2023/08/13 03:40:44;;;;;;;11.77;10.02;;;15.20;99.90;;;;;;8403014;28;20032;-81
2023/08/13 03:44:44;;;;;;;15.27;11.40;;;15.10;99.90;;;;;;8399755;28;20060;-81
2023/08/13 03:48:45;;;;;;;17.13;13.40;;;15.10;99.90;;;;;;8402861;28;20032;-82
2023/08/13 03:52:45;;;;;;;16.95;11.93;;;15.10;99.90;;;;;;8407193;28;20416;-82
2023/08/13 03:56:46;;;;;;;15.02;12.00;;;15.10;99.90;;;;;;8401411;28;20028;-81
2023/08/13 04:00:46;;;;;;;20.70;12.23;;;15.10;99.90;;;;;;8389105;28;20024;-81
2023/08/13 04:04:47;;;;;;;16.98;13.30;;;15.20;99.90;;;;;;8385972;28;20048;-81
2023/08/13 04:08:47;;;;;;;18.98;12.48;;;15.20;99.90;;;;;;8406108;28;20028;-82
2023/08/13 04:12:48;;;;;;;13.57;11.48;;;15.20;99.90;;;;;;8395052;28;20044;-81
2023/08/13 04:16:48;;;;;;;20.40;14.00;;;15.30;99.90;;;;;;8401739;28;20454;-82
2023/08/13 04:20:49;;;;;;;13.93;11.55;;;15.40;99.90;;;;;;8381865;28;20048;-81
2023/08/13 04:24:50;;;;;;;12.60;10.48;;;15.50;99.90;;;;;;8384872;28;20024;-82
2023/08/13 04:28:51;;;;;;;14.38;10.88;;;15.60;99.90;;;;;;8387736;28;20020;-82
2023/08/13 04:32:53;;;;;;;13.32;10.82;;;15.60;99.90;;;;;;8405457;28;20415;-82
2023/08/13 04:36:54;;;;;;;14.52;10.38;;;15.70;99.90;;;;;;8377753;28;20332;-82
2023/08/13 04:40:54;;;;;;;13.60;8.95;;;16.00;99.90;;;;;;8381057;28;20063;-82
2023/08/13 04:44:55;;;;;;;11.73;10.23;;;16.00;99.90;;;;;;8372929;28;20029;-82
2023/08/13 04:48:55;;;;;;;15.30;10.48;;;16.00;99.90;;;;;;8400131;28;20026;-82
2023/08/13 04:52:56;;;;;;;12.82;10.15;;;16.00;99.90;;;;;;8380480;28;20036;-81
2023/08/13 04:56:56;;;;;;;9.95;8.63;;;16.30;99.90;;;;;;8381590;28;20791;-82
2023/08/13 05:00:57;;;;;;;14.63;9.32;;;16.40;99.90;;;;;;8408583;28;20032;-82
2023/08/13 05:04:57;;;;;;;12.27;9.52;;;16.60;99.90;;;;;;8389467;28;20028;-82
2023/08/13 05:08:58;;;;;;;11.18;8.70;;;16.60;99.90;;;;;;8386953;28;20028;-82
2023/08/13 05:13:01;;;;;;;10.75;7.95;;;17.00;99.90;;;;;;8377241;28;20032;-82
2023/08/13 05:17:01;;;;;;;11.00;8.73;;;17.60;99.90;;;;;;8376959;28;20028;-82
2023/08/13 05:21:02;;;;;;;10.10;8.20;;;17.50;99.90;;;;;;8389065;28;20107;-82
2023/08/13 05:25:03;;;;;;;10.80;8.82;;;17.40;99.90;;;;;;8389868;28;20024;-82
2023/08/13 05:29:04;;;;;;;10.20;8.27;;;17.70;99.90;;;;;;8375253;28;20112;-81
2023/08/13 05:33:05;;;;;;;10.77;8.18;;;18.30;99.90;;;;;;8374356;28;20021;-82
2023/08/13 05:37:05;;;;;;;9.60;7.78;;;18.80;99.90;;;;;;8378161;28;20039;-82
2023/08/13 05:41:06;;;;;;;8.95;6.95;;;19.20;99.90;;;;;;8368410;28;20021;-82
2023/08/13 05:45:07;;;;;;;9.07;8.05;;;19.40;99.90;;;;;;8381265;28;20024;-81
2023/08/13 05:49:08;;;;;;;10.35;7.55;;;19.70;99.90;;;;;;8367792;28;20024;-82
2023/08/13 05:53:08;;;;;;;9.13;8.23;;;19.70;99.90;;;;;;8386997;28;20024;-81
2023/08/13 05:57:09;;;;;;;12.70;9.23;;;19.80;99.90;;;;;;8389461;28;20028;-82
2023/08/13 06:01:10;;;;;;;12.15;8.57;;;19.90;99.90;;;;;;8375793;28;20020;-83
2023/08/13 06:05:11;;;;;;;9.05;8.10;;;20.20;99.90;;;;;;8389407;28;20027;-82
2023/08/13 06:09:12;;;;;;;9.30;7.68;;;20.40;99.90;;;;;;8397382;28;20535;-82
2023/08/13 06:13:12;;;;;;;9.68;7.28;;;20.80;99.90;;;;;;8417163;28;20628;-82
2023/08/13 06:17:13;;;;;;;9.25;7.55;;;21.40;99.90;;;;;;8376702;28;20029;-83
2023/08/13 06:21:13;;;;;;;9.80;6.75;;;22.30;99.90;;;;;;8383411;28;20037;-82
2023/08/13 06:25:14;;;;;;;8.15;6.93;;;22.90;99.90;;;;;;8366065;28;20037;-82
2023/08/13 06:29:15;;;;;;;8.27;7.22;;;22.60;99.90;;;;;;8362314;28;20238;-82
2023/08/13 06:33:15;;;;;;;7.43;6.72;;;22.60;99.90;;;;;;8363924;28;20024;-82
2023/08/13 06:37:16;;;;;;;10.00;7.22;;;22.60;99.90;;;;;;8364245;28;20024;-82
2023/08/13 06:41:16;;;;;;;8.80;6.85;;;22.50;99.90;;;;;;8391282;28;20025;-82
2023/08/13 06:45:19;;;;;;;8.15;6.35;;;22.70;99.90;;;;;;8370424;28;20083;-81
2023/08/13 06:49:19;;;;;;;7.45;6.05;;;23.80;99.90;;;;;;8382483;28;20036;-81
2023/08/13 06:53:20;;;;;;;9.38;6.63;;;23.90;99.90;;;;;;8379346;28;20752;-80
2023/08/13 06:57:20;;;;;;;9.77;6.68;;;23.70;99.90;;;;;;8366691;28;20037;-82
2023/08/13 07:01:21;;;;;;;8.90;6.22;;;23.40;99.90;;;;;;8381771;28;20067;-82
2023/08/13 07:05:22;;;;;;;7.03;5.65;;;24.70;99.90;;;;;;8393707;28;20296;-81
2023/08/13 07:09:24;;;;;;;7.00;5.65;;;25.40;99.90;;;;;;8374415;28;20031;-80
2023/08/13 07:13:25;;;;;;;6.70;5.50;;;24.90;99.90;;;;;;8375959;28;20040;-81
2023/08/13 07:17:26;;;;;;;6.38;5.38;;;24.80;99.90;;;;;;8367168;28;20174;-82
2023/08/13 07:21:27;;;;;;;8.10;5.40;;;25.70;99.90;;;;;;8381020;28;20085;-81
2023/08/13 07:25:27;;;;;;;7.72;5.03;;;26.60;99.90;;;;;;8392297;28;20047;-82
2023/08/13 07:29:28;;;;;;;12.07;5.30;;;26.90;99.90;;;;;;8400334;28;20029;-82
2023/08/13 07:33:29;;;;;;;7.90;5.00;;;27.60;99.90;;;;;;8367319;28;20073;-81
2023/08/13 07:37:30;;;;;;;8.20;5.05;;;27.60;99.90;;;;;;8361475;28;20216;-81
2023/08/13 07:41:30;;;;;;;6.82;5.38;;;27.30;99.90;;;;;;8366106;28;20115;-82
2023/08/13 07:45:32;;;;;;;5.43;4.35;;;27.50;99.90;;;;;;8369182;28;20028;-78
2023/08/13 07:49:33;;;;;;;7.82;4.47;;;28.40;99.90;;;;;;8385339;28;20031;-80
2023/08/13 07:53:33;;;;;;;7.97;5.00;;;28.50;99.90;;;;;;8373813;28;20028;-80
2023/08/13 07:57:34;;;;;;;6.97;4.55;;;28.70;99.90;;;;;;8377382;28;20056;-80
2023/08/13 08:01:35;;;;;;;8.00;4.28;;;29.10;99.90;;;;;;8358045;28;20040;-80
2023/08/13 08:05:35;;;;;;;5.40;4.25;;;28.70;99.90;;;;;;8365708;28;20023;-80
2023/08/13 08:09:36;;;;;;;6.65;4.13;;;29.20;99.90;;;;;;8383132;28;20381;-80
2023/08/13 08:13:36;;;;;;;5.72;4.28;;;29.60;99.90;;;;;;8390585;28;20024;-79
2023/08/13 08:17:37;;;;;;;5.60;3.80;;;29.70;99.90;;;;;;8378391;28;20024;-80
2023/08/13 08:21:38;;;;;;;5.57;3.95;;;29.20;99.90;;;;;;8359744;28;20029;-79
2023/08/13 08:25:38;;;;;;;7.13;4.35;;;29.00;99.90;;;;;;8374768;28;20035;-80
2023/08/13 08:29:39;;;;;;;7.30;4.45;;;29.10;99.90;;;;;;8385858;28;20020;-80
2023/08/13 08:33:39;;;;;;;6.63;4.43;;;29.40;99.90;;;;;;8385124;28;20032;-80
2023/08/13 08:37:40;;;;;;;7.15;4.35;;;29.60;99.90;;;;;;8372039;28;20289;-80
2023/08/13 08:41:46;;;;;;;5.47;4.22;;;30.10;99.90;;;;;;8381908;28;20032;-80
2023/08/13 08:45:47;;;;;;;6.03;4.55;;;30.10;99.90;;;;;;8390170;28;20032;-80
2023/08/13 08:49:49;;;;;;;6.00;4.80;;;30.20;99.90;;;;;;8395437;28;20389;-80
2023/08/13 08:53:51;;;;;;;5.57;4.55;;;30.20;99.90;;;;;;8402367;28;20032;-80
2023/08/13 08:57:54;;;;;;;6.90;4.95;;;29.90;99.90;;;;;;8371871;28;20032;-82
2023/08/13 09:01:54;;;;;;;7.72;4.40;;;29.40;99.90;;;;;;8389462;28;20020;-82
2023/08/13 09:05:58;;;;;;;9.00;4.82;;;29.50;99.90;;;;;;8389046;28;20540;-82
2023/08/13 09:10:02;;;;;;;5.60;4.63;;;30.00;99.90;;;;;;8386984;28;20252;-83
2023/08/13 09:14:03;;;;;;;6.57;4.90;;;29.90;99.90;;;;;;8381781;28;20024;-82
2023/08/13 09:18:05;;;;;;;6.63;4.63;;;29.80;99.90;;;;;;8385769;28;20060;-83
2023/08/13 09:22:07;;;;;;;5.10;4.43;;;29.50;99.90;;;;;;8398837;28;20031;-82
2023/08/13 09:26:07;;;;;;;8.10;5.13;;;29.60;99.90;;;;;;8368390;28;20028;-82
2023/08/13 09:30:18;;;;;;;8.30;4.93;;;29.80;99.90;;;;;;8378903;28;20040;-82
2023/08/13 09:34:20;;;;;;;5.68;4.68;;;30.00;99.90;;;;;;8378798;28;20475;-82
2023/08/13 09:38:21;;;;;;;6.13;4.80;;;29.90;99.90;;;;;;8377605;28;20025;-82
2023/08/13 09:42:23;;;;;;;6.13;4.90;;;30.20;99.90;;;;;;8395303;28;20030;-82
2023/08/13 09:46:27;;;;;;;10.18;5.43;;;30.10;99.90;;;;;;8384962;28;20404;-82
2023/08/13 09:50:31;;;;;;;5.78;4.72;;;30.10;99.90;;;;;;8398305;28;20021;-82
2023/08/13 09:54:37;;;;;;;4.97;4.47;;;30.20;99.90;;;;;;8397753;28;20032;-83
2023/08/13 09:58:38;;;;;;;7.03;4.40;;;30.40;99.90;;;;;;8385938;28;20139;-82
2023/08/13 10:02:42;;;;;;;6.07;4.63;;;30.30;99.90;;;;;;8374014;28;20378;-82
2023/08/13 10:06:43;;;;;;;7.18;4.95;;;30.40;99.90;;;;;;8388963;28;20020;-82
2023/08/13 10:10:44;;;;;;;9.05;4.53;;;30.30;99.90;;;;;;8391636;28;20013;-81
2023/08/13 10:14:45;;;;;;;7.63;4.57;;;30.10;99.90;;;;;;8405974;28;20077;-82
2023/08/13 10:18:46;;;;;;;7.00;4.90;;;30.00;99.90;;;;;;8375809;28;20032;-82
2023/08/13 10:22:48;;;;;;;7.97;4.40;;;30.00;99.90;;;;;;8384887;28;20480;-82
2023/08/13 10:26:49;;;;;;;5.10;4.18;;;29.90;99.90;;;;;;8379603;28;20557;-82
2023/08/13 10:31:23;;;;;;;7.97;4.72;;;29.80;99.90;;;;;;8382870;28;20024;-83
2023/08/13 10:35:37;;;;;;;6.22;4.35;;;30.90;99.90;;;;;;8379037;28;20031;-82
2023/08/13 10:39:42;;;;;;;7.93;4.45;;;30.90;99.90;;;;;;8394678;28;20031;-81
2023/08/13 10:43:42;;;;;;;5.97;4.32;;;31.40;99.90;;;;;;8398418;28;20154;-82
2023/08/13 10:47:52;;;;;;;4.25;3.40;;;32.10;99.90;;;;;;8373119;28;20020;-83
2023/08/13 10:51:53;;;;;;;8.70;3.43;;;32.90;99.90;;;;;;8396914;28;20500;-83
2023/08/13 10:55:55;;;;;;;5.85;3.55;;;33.10;99.90;;;;;;8376405;28;20032;-83
2023/08/13 10:59:57;;;;;;;5.97;3.53;;;33.20;99.90;;;;;;8381666;28;20034;-82
2023/08/13 11:03:58;;;;;;;10.15;7.28;;;33.00;99.90;;;;;;8396308;28;20027;-83
2023/08/13 11:08:00;;;;;;;8.05;3.60;;;32.80;99.90;;;;;;8416078;28;20408;-82
2023/08/13 11:12:00;;;;;;;5.15;3.22;;;33.40;99.90;;;;;;8399563;28;20048;-82
2023/08/13 11:16:01;;;;;;;4.25;3.38;;;33.70;99.90;;;;;;8375286;28;20195;-83
2023/08/13 11:20:05;;;;;;;6.13;4.75;;;34.60;99.90;;;;;;8375358;28;20607;-82
2023/08/13 11:24:09;;;;;;;5.93;3.50;;;35.40;98.60;;;;;;8389024;28;20476;-83
2023/08/13 11:28:10;;;;;;;6.72;3.35;;;35.90;99.00;;;;;;8369852;28;20020;-82
2023/08/13 11:32:10;;;;;;;4.30;3.05;;;36.10;95.50;;;;;;8379954;28;20116;-82
2023/08/13 11:36:11;;;;;;;8.43;3.65;;;36.20;94.60;;;;;;8368354;28;20028;-83
2023/08/13 11:40:13;;;;;;;6.97;3.35;;;37.00;94.30;;;;;;8374640;28;20063;-82
2023/08/13 11:44:13;;;;;;;4.53;3.33;;;37.30;93.10;;;;;;8369640;28;20033;-82
2023/08/13 11:48:16;;;;;;;5.90;3.20;;;36.70;90.40;;;;;;8381548;28;20111;-83
2023/08/13 11:52:20;;;;;;;5.70;3.25;;;36.30;93.10;;;;;;8374014;28;20037;-82
2023/08/13 11:56:21;;;;;;;5.15;3.20;;;37.00;90.70;;;;;;8374037;28;20020;-83
2023/08/13 12:00:21;;;;;;;5.07;3.42;;;36.90;92.50;;;;;;8373836;28;20032;-81
2023/08/13 12:04:31;;;;;;;5.20;3.63;;;37.10;90.50;;;;;;8383264;28;20111;-82
2023/08/13 12:08:31;;;;;;;5.93;3.70;;;35.90;91.30;;;;;;8385918;28;20046;-82
2023/08/13 12:12:32;;;;;;;6.75;3.28;;;36.40;92.00;;;;;;8368998;28;20029;-82
2023/08/13 12:16:33;;;;;;;6.00;3.50;;;35.90;94.40;;;;;;8369147;28;20043;-83
2023/08/13 12:20:34;;;;;;;6.65;3.20;;;35.70;90.80;;;;;;8395369;28;20020;-83
2023/08/13 12:24:34;;;;;;;7.63;3.42;;;35.80;91.70;;;;;;8393582;28;20467;-82
2023/08/13 12:28:35;;;;;;;8.45;3.47;;;37.00;88.70;;;;;;8407699;28;20017;-83
2023/08/13 12:32:36;;;;;;;4.50;3.28;;;36.20;89.00;;;;;;8375695;28;20048;-82
2023/08/13 12:36:36;;;;;;;5.47;3.30;;;35.00;93.60;;;;;;8374020;28;20149;-83
2023/08/13 12:40:37;;;;;;;7.40;3.50;;;33.80;94.00;;;;;;8398890;28;20466;-82
2023/08/13 12:44:38;;;;;;;6.65;3.60;;;32.70;95.70;;;;;;8395468;28;20020;-83
2023/08/13 12:48:40;;;;;;;5.00;3.55;;;32.00;97.10;;;;;;8401641;28;20031;-82
2023/08/13 12:52:40;;;;;;;5.82;3.53;;;31.40;98.30;;;;;;8410965;28;20020;-83
2023/08/13 12:56:41;;;;;;;10.45;3.90;;;31.10;99.70;;;;;;8409185;28;20038;-83
2023/08/13 13:00:41;;;;;;;5.93;3.83;;;30.70;99.90;;;;;;8406776;28;20082;-83
2023/08/13 13:04:42;;;;;;;4.28;3.70;;;30.70;98.70;;;;;;8371810;28;20025;-82
2023/08/13 13:08:42;;;;;;;6.40;3.53;;;30.20;99.90;;;;;;8368783;28;20428;-82
2023/08/13 13:12:44;;;;;;;7.63;4.07;;;30.10;99.90;;;;;;8379038;28;20077;-82
2023/08/13 13:16:44;;;;;;;8.10;3.72;;;29.90;99.90;;;;;;8368014;28;20116;-83
2023/08/13 13:20:46;;;;;;;5.97;3.67;;;29.50;99.90;;;;;;8398836;28;20412;-82
2023/08/13 13:24:46;;;;;;;9.05;3.67;;;29.10;99.90;;;;;;8383781;28;20033;-81
2023/08/13 13:28:47;;;;;;;8.85;4.10;;;28.60;99.90;;;;;;8408135;28;20496;-82
2023/08/13 13:32:47;;;;;;;6.55;4.10;;;28.30;99.90;;;;;;8373879;28;20031;-82
2023/08/13 13:36:48;;;;;;;4.60;2.95;;;28.70;99.90;;;;;;8386502;28;20527;-83
2023/08/13 13:40:48;;;;;;;10.45;3.30;;;29.20;99.90;;;;;;8412379;28;20036;-81
2023/08/13 13:44:49;;;;;;;4.97;3.13;;;29.30;99.90;;;;;;8393191;28;20054;-83
2023/08/13 13:48:49;;;;;;;4.25;2.30;;;30.40;99.90;;;;;;8398981;28;20392;-84
2023/08/13 13:52:51;;;;;;;3.65;2.60;;;31.70;99.90;;;;;;8388562;28;20060;-84
2023/08/13 13:56:51;;;;;;;4.40;2.30;;;31.20;99.90;;;;;;8396671;28;20479;-84
2023/08/13 14:00:53;;;;;;;4.45;2.05;;;31.70;99.90;;;;;;8410453;28;20028;-85
2023/08/13 14:04:54;;;;;;;2.33;2.10;;;32.00;99.90;;;;;;8367077;28;20040;-84
2023/08/13 14:08:54;;;;;;;3.20;1.90;;;32.10;99.10;;;;;;8390374;28;20029;-85
2023/08/13 14:12:55;;;;;;;3.35;2.30;;;32.10;99.40;;;;;;8372127;28;20028;-85
2023/08/13 14:16:55;;;;;;;5.32;2.35;;;31.10;99.90;;;;;;8387803;28;20051;-84
2023/08/13 14:20:56;;;;;;;4.80;2.42;;;31.90;99.90;;;;;;8389133;28;20027;-84
2023/08/13 14:24:56;;;;;;;6.55;2.60;;;32.50;98.60;;;;;;8416476;28;20044;-84
2023/08/13 14:28:57;;;;;;;6.25;2.60;;;34.00;97.90;;;;;;8387030;28;20032;-84
2023/08/13 14:32:57;;;;;;;3.53;2.17;;;36.00;95.10;;;;;;8394809;28;20839;-84
2023/08/13 14:36:58;;;;;;;4.60;2.47;;;36.30;92.60;;;;;;8372453;28;20107;-85
2023/08/13 14:40:59;;;;;;;4.68;2.75;;;35.90;92.40;;;;;;8380269;28;20040;-82
2023/08/13 14:44:59;;;;;;;29.60;3.95;;;36.20;91.30;;;;;;8357177;28;20206;-82
2023/08/13 14:49:00;;;;;;;4.43;2.70;;;37.40;90.70;;;;;;8389669;28;20025;-82
2023/08/13 14:53:00;;;;;;;3.47;2.30;;;37.50;85.60;;;;;;8361593;28;20725;-80
2023/08/13 14:57:01;;;;;;;5.30;2.47;;;36.20;83.80;;;;;;8375141;28;20139;-81
2023/08/13 15:01:01;;;;;;;7.53;3.15;;;35.80;90.80;;;;;;8407682;28;20021;-84
2023/08/13 15:05:02;;;;;;;5.30;3.55;;;35.20;94.30;;;;;;8375006;28;20028;-83
2023/08/13 15:09:03;;;;;;;4.32;3.15;;;33.80;96.10;;;;;;8391486;28;20028;-83
2023/08/13 15:13:04;;;;;;;4.32;3.22;;;32.60;94.70;;;;;;8369132;28;20113;-83
2023/08/13 15:17:04;;;;;;;4.68;3.47;;;29.60;99.60;;;;;;8385439;28;20058;-83
2023/08/13 15:21:05;;;;;;;9.23;4.20;;;27.70;99.90;;;;;;8375771;28;20473;-83
2023/08/13 15:25:06;;;;;;;7.78;4.57;;;26.90;99.90;;;;;;8397801;28;20021;-83
2023/08/13 15:29:07;;;;;;;6.22;4.65;;;26.30;99.90;;;;;;8365787;28;20021;-83
2023/08/13 15:33:07;;;;;;;6.30;5.05;;;25.70;99.90;;;;;;8352791;28;20036;-83
2023/08/13 15:37:08;;;;;;;7.32;5.13;;;25.40;99.90;;;;;;8350309;28;20033;-83
2023/08/13 15:41:08;;;;;;;11.10;5.55;;;25.30;99.90;;;;;;8381302;28;20039;-84
2023/08/13 15:45:09;;;;;;;7.80;5.68;;;25.10;99.90;;;;;;8392367;28;20591;-83
2023/08/13 15:49:10;;;;;;;7.68;5.55;;;25.00;99.90;;;;;;8358463;28;20021;-83
2023/08/13 15:53:10;;;;;;;7.97;5.30;;;25.00;99.90;;;;;;8382710;28;20386;-83
2023/08/13 15:57:11;;;;;;;6.97;5.38;;;24.80;99.90;;;;;;8361521;28;20028;-83
2023/08/13 16:01:12;;;;;;;7.85;5.53;;;24.70;99.90;;;;;;8396355;28;20024;-83
2023/08/13 16:05:12;;;;;;;8.45;5.22;;;24.40;99.90;;;;;;8398183;23;20099;-78
2023/08/13 16:09:13;;;;;;;8.68;5.75;;;23.90;99.90;;;;;;8386070;28;20020;-82
2023/08/13 16:13:13;;;;;;;8.18;6.40;;;23.40;99.90;;;;;;8381820;28;20028;-81
2023/08/13 16:17:14;;;;;;;8.05;6.63;;;23.10;99.90;;;;;;8341623;28;20025;-83
2023/08/13 16:21:14;;;;;;;10.27;6.95;;;23.00;99.90;;;;;;8340808;28;20551;-85
2023/08/13 16:25:17;;;;;;;8.18;6.40;;;23.00;99.90;;;;;;8356246;28;20112;-83
2023/08/13 16:29:17;;;;;;;8.13;6.45;;;23.20;99.90;;;;;;8325194;28;20497;-83
2023/08/13 16:33:18;;;;;;;10.07;6.82;;;23.00;99.90;;;;;;8339292;28;20116;-82
2023/08/13 16:37:19;;;;;;;7.78;6.32;;;22.90;99.90;;;;;;8317481;28;20029;-83
2023/08/13 16:41:19;;;;;;;7.18;6.40;;;22.70;99.90;;;;;;8342740;28;20021;-82
2023/08/13 16:45:20;;;;;;;10.25;7.13;;;22.50;99.90;;;;;;8332679;28;20029;-82
2023/08/13 16:49:20;;;;;;;11.23;6.95;;;22.50;99.90;;;;;;8342513;28;20953;-83
2023/08/13 16:53:21;;;;;;;11.98;7.15;;;22.40;99.90;;;;;;8329896;28;20037;-81
2023/08/13 16:57:21;;;;;;;8.20;7.30;;;22.40;99.90;;;;;;8344479;28;20033;-82
2023/08/13 17:01:22;;;;;;;10.95;7.53;;;22.50;99.90;;;;;;8345188;28;20029;-82
2023/08/13 17:05:23;;;;;;;12.10;7.60;;;22.50;99.90;;;;;;8328703;28;20444;-82
2023/08/13 17:09:24;;;;;;;10.00;8.23;;;22.60;99.90;;;;;;8343596;28;20043;-82
2023/08/13 17:13:24;;;;;;;10.93;7.72;;;22.50;99.90;;;;;;8331460;28;20071;-82
2023/08/13 17:17:25;;;;;;;14.38;8.75;;;22.50;99.90;;;;;;8324256;28;20026;-82
2023/08/13 17:21:26;;;;;;;9.80;7.97;;;22.40;99.90;;;;;;8349241;28;20041;-82
2023/08/13 17:25:26;;;;;;;15.10;8.38;;;22.30;99.90;;;;;;8326641;28;20021;-82
2023/08/13 17:29:27;;;;;;;11.77;8.98;;;22.10;99.90;;;;;;8363504;28;20032;-82
2023/08/13 17:33:27;;;;;;;9.98;8.25;;;22.10;99.90;;;;;;8357074;28;20037;-82
2023/08/13 17:37:28;;;;;;;9.30;7.50;;;22.10;99.90;;;;;;8345237;28;20033;-82
2023/08/13 17:41:29;;;;;;;11.00;7.40;;;22.10;99.90;;;;;;8358650;28;20059;-82
2023/08/13 17:45:29;;;;;;;10.63;8.38;;;22.00;99.90;;;;;;8344788;28;20025;-82
2023/08/13 17:49:30;;;;;;;14.82;9.73;;;21.70;99.90;;;;;;8337197;28;20021;-83
2023/08/13 17:53:30;;;;;;;14.80;9.45;;;21.70;99.90;;;;;;8343887;28;20029;-82
2023/08/13 17:57:31;;;;;;;15.55;9.43;;;21.60;99.90;;;;;;8347180;28;20489;-82
2023/08/13 18:01:32;;;;;;;11.07;9.40;;;22.00;99.90;;;;;;8326751;28;20501;-82
2023/08/13 18:05:32;;;;;;;14.82;10.00;;;21.80;99.90;;;;;;8350370;28;20060;-83
2023/08/13 18:09:33;;;;;;;13.27;10.82;;;21.90;99.90;;;;;;8353470;28;20025;-81
2023/08/13 18:13:33;;;;;;;13.20;10.15;;;21.70;99.90;;;;;;8346005;28;20025;-83
2023/08/13 18:17:34;;;;;;;12.60;9.45;;;21.70;99.90;;;;;;8340691;28;20036;-82
2023/08/13 18:21:34;;;;;;;15.90;10.90;;;21.70;99.90;;;;;;8356365;28;20025;-83
2023/08/13 18:25:35;;;;;;;12.82;10.48;;;21.60;99.90;;;;;;8365604;28;20108;-83
2023/08/13 18:29:36;;;;;;;13.80;10.38;;;21.40;99.90;;;;;;8357591;28;20021;-82
2023/08/13 18:33:36;;;;;;;17.40;13.18;;;21.50;99.90;;;;;;8339292;28;20025;-84
2023/08/13 18:37:37;;;;;;;17.60;12.80;;;21.20;99.90;;;;;;8335233;28;20036;-82
2023/08/13 18:41:37;;;;;;;11.93;10.35;;;21.20;99.90;;;;;;8348096;28;20096;-82
2023/08/13 18:45:38;;;;;;;11.68;9.88;;;21.30;99.90;;;;;;8348949;28;20092;-82
2023/08/13 18:49:38;;;;;;;14.55;9.85;;;21.50;99.90;;;;;;8333784;28;20021;-83
2023/08/13 18:53:39;;;;;;;18.73;10.50;;;21.50;99.90;;;;;;8361960;28;20079;-82
2023/08/13 18:57:40;;;;;;;12.80;10.43;;;21.20;99.90;;;;;;8352170;28;20025;-82
2023/08/13 19:01:41;;;;;;;15.25;12.80;;;21.10;99.90;;;;;;8357507;28;20021;-83
2023/08/13 19:05:44;;;;;;;18.20;14.73;;;20.80;99.90;;;;;;8335327;28;20037;-83
2023/08/13 19:09:44;;;;;;;13.10;11.57;;;20.70;99.90;;;;;;8357604;28;20021;-82
2023/08/13 19:13:45;;;;;;;20.13;13.45;;;20.90;99.90;;;;;;8358468;28;20385;-83
2023/08/13 19:17:45;;;;;;;17.80;14.60;;;20.90;99.90;;;;;;8353941;28;20032;-86
2023/08/13 19:21:46;;;;;;;17.52;15.35;;;21.00;99.90;;;;;;8348981;28;20119;-87
2023/08/13 19:25:47;;;;;;;16.20;14.50;;;20.80;99.90;;;;;;8357646;28;20517;-86
2023/08/13 19:29:47;;;;;;;16.95;13.55;;;20.80;99.90;;;;;;8338954;28;20017;-87
2023/08/13 19:33:48;;;;;;;17.10;14.30;;;20.80;99.90;;;;;;8330485;28;20029;-82
2023/08/13 19:37:48;;;;;;;16.92;13.60;;;20.50;99.90;;;;;;8325453;28;20122;-82
2023/08/13 19:41:49;;;;;;;19.63;15.27;;;20.30;99.90;;;;;;8345951;28;20029;-82
2023/08/13 19:45:50;;;;;;;17.45;15.13;;;20.30;99.90;;;;;;8335951;28;20028;-84
2023/08/13 19:49:50;;;;;;;15.75;12.20;;;20.30;99.90;;;;;;8346312;28;20017;-83
2023/08/13 19:53:51;;;;;;;18.40;12.73;;;20.30;99.90;;;;;;8344021;28;20401;-81
2023/08/13 19:57:51;;;;;;;16.30;12.77;;;20.30;99.90;;;;;;8340248;28;20049;-82
2023/08/13 20:01:52;;;;;;;18.25;14.85;;;20.30;99.90;;;;;;8350533;28;20074;-82
2023/08/13 20:05:52;;;;;;;21.45;16.33;;;20.00;99.90;;;;;;8340210;28;20029;-82
2023/08/13 20:09:53;;;;;;;19.23;12.90;;;19.80;99.90;;;;;;8361618;28;20051;-82
2023/08/13 20:13:53;;;;;;;17.38;14.35;;;20.00;99.90;;;;;;8363405;28;20029;-81
2023/08/13 20:17:54;;;;;;;17.73;14.80;;;20.10;99.90;;;;;;8351302;28;20070;-82
2023/08/13 20:21:56;;;;;;;21.88;14.55;;;20.10;99.90;;;;;;8368247;28;20566;-82
2023/08/13 20:25:56;;;;;;;17.08;14.43;;;20.10;99.90;;;;;;8347041;28;20035;-83
2023/08/13 20:29:57;;;;;;;18.90;14.55;;;19.90;99.90;;;;;;8365856;28;20488;-83
2023/08/13 20:33:58;;;;;;;21.05;14.07;;;19.80;99.90;;;;;;8349103;28;20067;-83
2023/08/13 20:37:58;;;;;;;17.10;15.23;;;19.80;99.90;;;;;;8345469;28;20052;-82
2023/08/13 20:41:59;;;;;;;15.95;13.20;;;19.70;99.90;;;;;;8346230;28;20440;-84
2023/08/13 20:45:59;;;;;;;15.15;12.75;;;19.90;99.90;;;;;;8346703;28;20036;-82